Time;durP1;ratioP1;P1;durP2;ratioP2;P2;SDS_P1;SDS_P2;PMS_P1;PMS_P2;Temp;Humidity;BMP_temperature;BMP_pressure;BME280_temperature;BME280_humidity;BME280_pressure;Samples;Min_cycle;Max_cycle;Signal;HPM_P1;HPM_P2
2022/06/11 00:00:25;;;;;;;7.53;3.03;;;20.70;98.00;;;;;;4723086;30;20036;-86
2022/06/11 00:02:51;;;;;;;11.10;2.67;;;20.60;98.20;;;;;;4737859;30;20032;-89
2022/06/11 00:05:17;;;;;;;5.85;2.53;;;20.60;98.20;;;;;;4737913;30;20032;-89
2022/06/11 00:07:49;;;;;;;5.70;2.75;;;20.60;98.20;;;;;;4719295;30;20608;-88
2022/06/11 00:10:27;;;;;;;5.25;2.55;;;20.60;99.90;;;;;;4719954;30;20048;-87
2022/06/11 00:32:15;;;;;;;6.47;2.90;;;20.60;98.30;;;;;;5452198;24;20533;-89
2022/06/11 00:55:28;;;;;;;8.10;3.03;;;20.00;99.70;;;;;;2984599;24;20091;-89
2022/06/11 00:58:17;;;;;;;7.68;4.10;;;19.80;99.80;;;;;;4774714;30;20565;-89
2022/06/11 01:01:01;;;;;;;7.78;3.50;;;20.00;99.90;;;;;;4774841;30;20510;-88
2022/06/11 01:03:43;;;;;;;;;;;19.80;99.90;;;;;;4780946;24;20079;-89
2022/06/11 01:10:38;;;;;;;6.25;3.15;;;20.10;99.40;;;;;;4737111;30;20101;-90
2022/06/11 01:13:31;;;;;;;6.10;2.78;;;19.70;99.40;;;;;;4686909;30;20043;-88
2022/06/11 01:16:59;;;;;;;8.90;3.55;;;20.10;99.40;;;;;;4715088;30;20053;-90
2022/06/11 01:19:43;;;;;;;6.40;2.90;;;20.30;99.20;;;;;;4661934;30;20497;-85
2022/06/11 01:22:49;;;;;;;6.95;3.20;;;20.30;99.30;;;;;;4661633;30;20249;-88
2022/06/11 01:25:39;;;;;;;9.95;3.90;;;21.70;99.90;;;;;;4809388;24;20362;-83
2022/06/11 01:28:31;;;;;;;7.00;3.10;;;20.40;98.90;;;;;;4783589;30;20046;-89
2022/06/11 01:31:02;;;;;;;7.00;3.28;;;20.30;99.20;;;;;;4775771;30;20243;-90
2022/06/11 01:33:38;;;;;;;5.88;3.10;;;20.20;99.50;;;;;;4774457;30;20039;-87
2022/06/11 01:39:16;;;;;;;6.68;3.13;;;20.20;99.20;;;;;;4779269;24;20120;-89
2022/06/11 01:42:18;;;;;;;6.65;3.45;;;20.60;99.40;;;;;;4775356;30;20095;-90
2022/06/11 01:45:26;;;;;;;4.88;2.50;;;20.20;99.10;;;;;;4774129;30;20323;-89
2022/06/11 01:48:39;;;;;;;7.10;3.13;;;20.20;98.90;;;;;;4822234;24;20420;-82
2022/06/11 01:52:00;;;;;;;7.60;3.38;;;21.90;99.50;;;;;;4774078;30;20222;-84
2022/06/11 01:55:03;;;;;;;6.05;3.00;;;21.40;99.10;;;;;;4852156;24;20163;-84
2022/06/11 01:58:25;;;;;;;7.95;3.08;;;20.50;98.60;;;;;;4773991;30;20117;-83
2022/06/11 02:01:37;;;;;;;6.15;3.10;;;20.50;98.40;;;;;;4773309;29;20027;-84
2022/06/11 02:08:13;;;;;;;5.78;3.15;;;20.50;98.40;;;;;;4773648;30;20099;-86
2022/06/11 02:11:26;;;;;;;7.53;3.72;;;20.40;99.10;;;;;;4734785;30;20253;-83
2022/06/11 02:17:26;;;;;;;9.00;3.60;;;20.30;99.10;;;;;;4911585;24;20128;-89
2022/06/11 02:23:16;;;;;;;7.15;3.55;;;19.40;98.40;;;;;;4773784;30;20036;-85
2022/06/11 02:29:01;;;;;;;6.78;3.45;;;20.30;98.80;;;;;;4775127;30;20046;-89
2022/06/11 02:31:39;;;;;;;6.90;3.58;;;20.50;98.80;;;;;;4773582;30;20462;-88
2022/06/11 02:34:07;;;;;;;5.93;2.95;;;17.50;97.90;;;;;;4774437;30;20365;-83
2022/06/11 02:37:14;;;;;;;7.25;3.67;;;20.50;98.60;;;;;;4774035;30;20412;-88
2022/06/11 02:39:51;;;;;;;7.72;2.92;;;21.70;98.90;;;;;;4773123;30;20179;-88
2022/06/11 02:43:09;;;;;;;6.50;2.75;;;20.50;99.10;;;;;;4772503;30;20250;-89
2022/06/11 02:45:27;;;;;;;;;;;;;;;;;;;;;
2022/06/11 02:47:59;;;;;;;9.00;3.78;;;20.40;99.40;;;;;;4774070;30;20028;-89
2022/06/11 02:53:28;;;;;;;7.63;3.88;;;20.40;99.10;;;;;;4774755;30;20104;-86
2022/06/11 02:56:34;;;;;;;9.75;3.20;;;20.30;99.20;;;;;;4772328;30;20047;-87
2022/06/11 02:59:12;;;;;;;6.30;3.10;;;19.80;99.30;;;;;;4772812;30;20539;-89
2022/06/11 03:01:40;;;;;;;7.22;3.28;;;20.20;99.20;;;;;;4771967;30;20051;-89
2022/06/11 03:04:10;;;;;;;5.93;2.78;;;20.30;98.90;;;;;;4772725;30;20798;-89
2022/06/11 03:06:43;;;;;;;9.45;3.42;;;20.30;98.80;;;;;;4773877;30;20039;-88
2022/06/11 03:09:29;;;;;;;6.82;3.78;;;20.40;98.80;;;;;;4773687;30;20330;-85
2022/06/11 03:11:55;;;;;;;7.22;3.53;;;20.90;99.10;;;;;;4772819;29;20050;-85
2022/06/11 03:14:44;;;;;;;7.47;3.97;;;20.20;99.90;;;;;;4771594;30;20366;-89
2022/06/11 03:17:33;;;;;;;6.15;3.40;;;19.30;99.90;;;;;;4894810;24;20055;-89
2022/06/11 03:20:22;;;;;;;7.88;3.63;;;20.40;99.90;;;;;;4773060;29;20107;-85
2022/06/11 03:22:49;;;;;;;7.25;3.63;;;19.30;99.90;;;;;;4854080;24;20011;-83
2022/06/11 03:25:34;;;;;;;7.55;3.55;;;19.30;99.90;;;;;;4772798;30;20547;-82
2022/06/11 03:28:35;;;;;;;10.00;4.22;;;19.40;99.90;;;;;;4773133;30;20043;-90
2022/06/11 03:31:09;;;;;;;8.82;4.53;;;19.40;99.90;;;;;;4735063;30;20071;-90
2022/06/11 03:33:51;;;;;;;7.57;3.80;;;20.20;99.90;;;;;;4719961;30;20048;-85
2022/06/11 03:36:23;;;;;;;7.78;3.47;;;20.30;99.90;;;;;;4738921;30;20427;-90
2022/06/11 03:38:54;;;;;;;8.68;3.65;;;19.00;99.90;;;;;;4724875;29;20052;-90
2022/06/11 03:42:09;;;;;;;7.45;3.58;;;19.50;99.90;;;;;;4738524;30;20125;-90
2022/06/11 03:44:11;;;;;;;7.72;3.05;;;19.30;99.90;;;;;;4735078;30;20492;-88
2022/06/11 03:46:48;;;;;;;6.97;3.20;;;19.40;99.90;;;;;;4739709;30;20032;-90
2022/06/11 03:49:20;;;;;;;6.18;3.30;;;19.50;99.90;;;;;;4732545;30;20516;-90
2022/06/11 03:51:50;;;;;;;6.70;3.70;;;19.60;99.90;;;;;;4747959;30;20154;-89
2022/06/11 03:54:19;;;;;;;6.93;3.35;;;19.80;99.90;;;;;;4747964;30;20036;-85
2022/06/11 03:56:47;;;;;;;7.95;3.80;;;19.90;99.90;;;;;;4729201;30;20142;-87
2022/06/11 03:59:13;;;;;;;8.57;3.45;;;19.90;99.90;;;;;;4723809;30;20028;-89
2022/06/11 04:01:40;;;;;;;7.40;4.10;;;19.60;99.90;;;;;;4738051;30;20079;-85
2022/06/11 04:04:15;;;;;;;7.45;3.63;;;19.60;99.90;;;;;;4763707;24;20157;-90
2022/06/11 04:07:05;;;;;;;7.88;3.05;;;20.00;99.90;;;;;;4776807;30;20039;-86
2022/06/11 04:12:36;;;;;;;7.03;3.38;;;20.00;99.80;;;;;;5055154;24;20439;-89
2022/06/11 04:15:35;;;;;;;8.43;3.67;;;20.30;99.90;;;;;;4774774;30;20100;-89
2022/06/11 04:18:52;;;;;;;7.82;3.58;;;20.60;99.90;;;;;;4775772;30;20043;-88
2022/06/11 04:21:19;;;;;;;6.32;3.30;;;20.20;99.50;;;;;;4773974;30;20239;-85
2022/06/11 04:24:24;;;;;;;6.97;3.80;;;20.30;99.20;;;;;;4774498;30;20055;-86
2022/06/11 04:26:53;;;;;;;6.53;3.58;;;21.40;99.50;;;;;;4775702;30;20024;-85
2022/06/11 04:29:21;;;;;;;8.07;3.75;;;20.30;99.00;;;;;;4775786;30;20257;-85
2022/06/11 04:31:50;;;;;;;7.25;3.42;;;20.40;99.10;;;;;;4774533;30;20254;-89
2022/06/11 04:34:25;;;;;;;7.65;3.65;;;20.40;98.80;;;;;;4773858;30;20082;-84
2022/06/11 04:36:51;;;;;;;8.45;4.30;;;20.70;99.20;;;;;;4773967;30;20047;-85
2022/06/11 04:39:30;;;;;;;8.02;3.78;;;20.30;99.00;;;;;;4779940;24;20565;-88
2022/06/11 04:42:11;;;;;;;9.70;4.00;;;20.30;99.00;;;;;;4758032;30;20031;-84
2022/06/11 04:44:39;;;;;;;8.02;3.55;;;20.30;99.50;;;;;;4759261;30;20039;-84
2022/06/11 04:47:06;;;;;;;9.65;4.15;;;20.20;99.10;;;;;;4773800;29;20038;-89
2022/06/11 04:49:48;;;;;;;9.80;4.65;;;20.30;99.80;;;;;;4774565;30;20035;-89
2022/06/11 04:52:14;;;;;;;7.95;3.78;;;20.10;99.70;;;;;;4773629;30;20611;-88
2022/06/11 04:55:05;;;;;;;7.90;3.20;;;19.80;99.90;;;;;;4775400;30;20330;-89
2022/06/11 05:00:44;;;;;;;7.97;3.63;;;19.80;99.90;;;;;;2924291;27;20256;-90
2022/06/11 05:03:22;;;;;;;8.00;3.90;;;19.80;99.60;;;;;;4946069;24;20027;-90
2022/06/11 05:06:14;;;;;;;6.97;3.45;;;20.00;99.90;;;;;;4774514;30;20039;-88
2022/06/11 05:08:53;;;;;;;6.93;3.28;;;20.00;99.90;;;;;;4775060;30;20074;-85
2022/06/11 05:11:19;;;;;;;7.60;3.80;;;20.00;99.70;;;;;;4774965;30;20045;-87
2022/06/11 05:13:46;;;;;;;9.25;3.97;;;20.10;99.50;;;;;;4775438;30;20028;-90
2022/06/11 05:19:15;;;;;;;7.43;3.75;;;19.80;99.90;;;;;;4785569;24;20147;-91
2022/06/11 05:21:43;;;;;;;9.20;5.30;;;19.90;99.90;;;;;;4774950;30;20128;-90
2022/06/11 05:24:29;;;;;;;9.55;4.63;;;19.70;99.90;;;;;;4773736;30;20264;-82
2022/06/11 05:27:06;;;;;;;6.85;3.60;;;19.70;99.90;;;;;;4772954;30;20055;-84
2022/06/11 05:29:56;;;;;;;9.30;4.35;;;20.00;99.90;;;;;;4773104;30;20039;-86
2022/06/11 05:32:29;;;;;;;7.32;3.92;;;20.10;99.90;;;;;;4774084;30;20503;-86
2022/06/11 05:34:59;;;;;;;;;;;19.80;99.90;;;;;;4773436;30;20100;-86
2022/06/11 05:37:25;;;;;;;9.95;4.18;;;20.60;99.90;;;;;;4773130;30;19909;-86
2022/06/11 05:39:52;;;;;;;9.48;4.80;;;20.00;99.80;;;;;;4774466;30;20043;-84
2022/06/11 05:42:21;;;;;;;9.38;3.90;;;20.10;99.70;;;;;;4775299;30;20340;-86
2022/06/11 05:44:56;;;;;;;8.38;4.07;;;20.20;99.50;;;;;;4774746;30;20080;-87
2022/06/11 05:53:04;;;;;;;10.13;5.53;;;19.90;99.90;;;;;;4775946;30;20286;-90
2022/06/11 05:55:53;;;;;;;12.80;7.60;;;19.70;99.90;;;;;;4773018;30;20458;-88
2022/06/11 05:58:26;;;;;;;13.07;7.28;;;19.20;99.90;;;;;;4773281;29;20027;-86
2022/06/11 06:00:52;;;;;;;12.57;6.65;;;;;;;;;;4773641;30;20023;-87
2022/06/11 06:03:18;;;;;;;10.57;6.43;;;19.00;99.90;;;;;;4772980;30;20478;-87
2022/06/11 06:05:58;;;;;;;13.05;7.40;;;19.00;99.90;;;;;;4773486;30;20023;-89
2022/06/11 06:08:44;;;;;;;11.35;6.85;;;20.70;99.90;;;;;;4773632;30;20038;-88
2022/06/11 06:16:54;;;;;;;11.85;6.18;;;19.20;99.90;;;;;;4807149;24;19934;-88
2022/06/11 06:19:20;;;;;;;15.05;7.07;;;16.90;99.90;;;;;;4775948;30;20346;-90
2022/06/11 06:24:34;;;;;;;10.65;5.82;;;18.70;99.90;;;;;;4841128;24;20066;-87
2022/06/11 06:32:52;;;;;;;11.95;7.07;;;18.70;99.90;;;;;;4788506;24;20358;-89
2022/06/11 06:49:29;;;;;;;9.45;5.93;;;18.70;99.90;;;;;;5360659;24;20444;-90
2022/06/11 06:52:24;;;;;;;11.50;6.90;;;20.30;99.90;;;;;;4774638;30;20049;-88
2022/06/11 06:54:56;;;;;;;16.67;9.90;;;18.80;99.90;;;;;;4759000;30;20713;-92
2022/06/11 06:57:22;;;;;;;15.95;9.68;;;18.90;99.90;;;;;;4794005;24;20073;-86
2022/06/11 06:59:47;;;;;;;14.55;8.30;;;19.00;99.90;;;;;;4801689;24;20083;-89
2022/06/11 07:04:51;;;;;;;11.88;7.30;;;19.20;99.90;;;;;;4800945;24;20150;-89
2022/06/11 07:10:00;;;;;;;14.10;7.10;;;19.20;99.90;;;;;;4786298;24;20081;-90
2022/06/11 07:12:32;;;;;;;11.50;6.75;;;19.20;99.90;;;;;;4930251;24;20059;-86
2022/06/11 07:14:58;;;;;;;12.40;7.18;;;19.00;99.90;;;;;;4784135;24;20955;-88
2022/06/11 07:17:55;;;;;;;11.20;6.20;;;18.90;99.90;;;;;;4778279;30;20043;-90
2022/06/11 07:20:40;;;;;;;14.10;6.70;;;18.80;99.90;;;;;;4779370;30;20039;-90
2022/06/11 07:23:36;;;;;;;11.57;7.18;;;19.20;99.90;;;;;;4784225;24;20059;-85
2022/06/11 07:26:54;;;;;;;14.15;7.68;;;18.30;99.90;;;;;;4768251;24;20051;-86
2022/06/11 07:29:51;;;;;;;12.77;7.95;;;18.60;99.90;;;;;;4705089;30;20072;-89
2022/06/11 07:39:29;;;;;;;11.38;6.38;;;19.60;99.90;;;;;;4778820;30;20053;-88
2022/06/11 07:59:05;;;;;;;11.95;7.28;;;18.30;99.90;;;;;;4778538;30;20101;-89
2022/06/11 09:02:34;;;;;;;9.02;4.03;;;19.70;98.60;;;;;;4775962;30;20093;-87
2022/06/11 09:05:37;;;;;;;11.52;5.60;;;20.50;98.90;;;;;;4777501;30;20035;-87
2022/06/11 09:15:26;;;;;;;7.20;3.92;;;19.60;99.00;;;;;;4790874;24;20128;-88
2022/06/11 09:18:02;;;;;;;8.82;5.05;;;19.40;98.70;;;;;;4774163;30;20043;-91
2022/06/11 09:24:36;;;;;;;10.50;5.35;;;19.00;99.70;;;;;;4792167;24;20053;-88
2022/06/11 09:27:48;;;;;;;9.80;4.80;;;19.30;99.80;;;;;;4775372;30;20031;-86
2022/06/11 09:30:34;;;;;;;10.07;5.38;;;19.30;99.90;;;;;;4775642;30;20027;-88
2022/06/11 09:33:30;;;;;;;11.18;5.63;;;19.40;99.90;;;;;;4774289;29;20059;-87
2022/06/11 09:36:16;;;;;;;13.63;5.68;;;19.40;99.90;;;;;;4781853;30;20036;-85
2022/06/11 09:39:03;;;;;;;10.43;5.13;;;19.50;99.90;;;;;;4775760;30;20027;-85
2022/06/11 09:41:58;;;;;;;9.75;5.78;;;19.50;99.90;;;;;;4774335;30;20106;-85
2022/06/11 09:45:01;;;;;;;13.15;5.85;;;19.00;99.90;;;;;;4772336;30;20118;-87
2022/06/11 09:47:56;;;;;;;11.00;5.88;;;19.50;99.90;;;;;;4772857;30;20055;-86
2022/06/11 09:50:31;;;;;;;11.85;6.38;;;18.20;99.90;;;;;;4746429;24;20055;-85
2022/06/11 09:53:34;;;;;;;11.40;6.80;;;19.40;99.90;;;;;;4775188;30;20347;-86
2022/06/11 09:56:55;;;;;;;11.65;6.15;;;17.50;99.90;;;;;;4776166;30;20338;-87
2022/06/11 09:59:42;;;;;;;13.40;7.47;;;19.30;99.90;;;;;;4721116;30;20051;-85
2022/06/11 10:02:09;;;;;;;12.80;6.13;;;19.50;99.90;;;;;;4727414;30;20037;-86
2022/06/11 10:04:55;;;;;;;10.93;6.75;;;19.00;99.90;;;;;;4766761;24;20066;-86
2022/06/11 10:11:04;;;;;;;11.93;6.60;;;22.30;99.90;;;;;;4782696;30;20048;-86
2022/06/11 10:17:30;;;;;;;11.02;7.18;;;18.60;99.90;;;;;;4756844;30;20299;-88
2022/06/11 10:20:36;;;;;;;11.50;6.88;;;20.00;99.90;;;;;;4742204;30;20550;-89
2022/06/11 10:23:31;;;;;;;12.02;6.93;;;19.00;99.90;;;;;;4670173;30;20595;-85
2022/06/11 10:26:30;;;;;;;10.55;5.90;;;19.80;99.90;;;;;;4669329;30;20096;-89
2022/06/11 10:29:13;;;;;;;11.55;6.55;;;19.50;99.90;;;;;;4669887;30;20042;-86
2022/06/11 10:32:00;;;;;;;11.55;6.50;;;19.80;99.90;;;;;;4672836;30;20037;-87
2022/06/11 10:34:37;;;;;;;11.80;7.00;;;20.20;99.90;;;;;;4673709;30;20038;-86
2022/06/11 10:37:43;;;;;;;11.10;6.32;;;20.50;99.20;;;;;;4674703;30;20046;-87
2022/06/11 10:40:57;;;;;;;10.10;6.07;;;20.80;98.50;;;;;;4610811;31;20061;-87
2022/06/11 10:43:51;;;;;;;9.85;6.18;;;19.60;97.70;;;;;;4749337;24;20055;-86
2022/06/11 10:46:58;;;;;;;11.80;6.65;;;19.90;96.40;;;;;;4782353;29;20063;-86
2022/06/11 10:49:28;;;;;;;11.10;6.05;;;20.40;96.60;;;;;;4746184;29;20712;-86
2022/06/11 10:52:04;;;;;;;10.75;5.35;;;21.30;96.20;;;;;;4759430;30;20035;-88
2022/06/11 10:54:37;;;;;;;9.57;5.72;;;21.40;96.30;;;;;;4747370;30;20042;-84
2022/06/11 10:57:22;;;;;;;10.82;5.50;;;19.60;95.40;;;;;;4750190;30;20050;-88
2022/06/11 11:00:23;;;;;;;11.30;6.43;;;22.00;96.20;;;;;;4748981;30;20043;-87
2022/06/11 11:03:25;;;;;;;11.00;6.35;;;21.90;95.60;;;;;;4735285;30;20021;-87
2022/06/11 11:06:32;;;;;;;11.15;6.25;;;22.70;95.70;;;;;;4744259;30;20044;-90
2022/06/11 11:09:13;;;;;;;11.88;6.40;;;19.90;95.60;;;;;;4741926;30;20044;-91
2022/06/11 11:11:49;;;;;;;11.18;6.82;;;21.60;96.30;;;;;;4743481;30;20145;-87
2022/06/11 11:14:35;;;;;;;13.10;7.20;;;21.90;96.10;;;;;;4738400;30;20109;-84
2022/06/11 11:17:03;;;;;;;12.63;7.60;;;21.20;95.80;;;;;;4731911;30;20032;-88
2022/06/11 11:23:10;;;;;;;11.88;7.55;;;21.10;96.70;;;;;;4741695;30;20204;-87
2022/06/11 11:26:02;;;;;;;12.38;6.45;;;22.30;98.30;;;;;;4739815;30;20799;-88
2022/06/11 11:28:44;;;;;;;11.38;7.28;;;20.20;98.90;;;;;;4770644;30;20036;-88
2022/06/11 11:31:42;;;;;;;13.27;7.90;;;19.90;99.10;;;;;;4760837;30;20039;-87
2022/06/11 11:34:40;;;;;;;11.48;7.05;;;20.00;99.60;;;;;;4786502;24;20055;-86
2022/06/11 11:37:15;;;;;;;11.75;6.93;;;20.60;98.80;;;;;;4762422;30;20062;-88
2022/06/11 11:40:04;;;;;;;;;;;;;;;;;;;;;
2022/06/11 11:42:39;;;;;;;11.40;6.43;;;21.20;97.80;;;;;;4787280;30;20479;-86
2022/06/11 11:45:43;;;;;;;10.65;6.47;;;21.50;97.50;;;;;;4791069;24;20055;-87
2022/06/11 11:48:30;;;;;;;10.60;5.85;;;21.80;96.40;;;;;;4788510;30;20039;-85
2022/06/11 11:51:08;;;;;;;11.88;6.95;;;22.00;96.60;;;;;;4781672;30;20817;-86
2022/06/11 11:53:42;;;;;;;11.18;7.00;;;22.00;96.70;;;;;;4786348;30;20031;-84
2022/06/11 11:57:11;;;;;;;12.45;7.03;;;21.80;95.70;;;;;;4787230;29;20092;-87
2022/06/11 12:00:03;;;;;;;11.98;6.57;;;23.30;96.40;;;;;;4728153;30;20043;-86
2022/06/11 12:02:59;;;;;;;11.88;6.43;;;21.10;96.60;;;;;;4745173;30;20113;-86
2022/06/11 12:05:33;;;;;;;10.48;6.20;;;21.10;96.90;;;;;;4747711;30;20041;-81
2022/06/11 12:10:50;;;;;;;11.85;6.75;;;20.90;97.40;;;;;;4795721;24;20059;-83
2022/06/11 12:13:29;;;;;;;10.93;6.55;;;20.90;97.60;;;;;;4789690;30;20588;-86
2022/06/11 12:16:21;;;;;;;11.38;7.03;;;21.00;97.50;;;;;;4782197;30;20602;-88
2022/06/11 12:19:09;;;;;;;10.80;6.90;;;21.80;97.50;;;;;;4783244;30;20062;-86
2022/06/11 12:21:42;;;;;;;12.02;7.80;;;21.30;97.50;;;;;;4789522;30;20053;-90
2022/06/11 12:24:52;;;;;;;13.40;7.45;;;20.90;97.60;;;;;;4786863;30;20115;-88
2022/06/11 12:27:39;;;;;;;12.05;6.80;;;21.00;97.30;;;;;;4787795;30;20035;-86
2022/06/11 12:30:23;;;;;;;13.13;7.00;;;21.30;97.00;;;;;;4780643;30;20031;-88
2022/06/11 12:32:49;;;;;;;11.35;7.18;;;21.50;96.30;;;;;;4793034;30;20047;-87
2022/06/11 12:35:47;;;;;;;12.05;7.03;;;21.70;96.70;;;;;;4790349;30;20027;-91
2022/06/11 12:38:18;;;;;;;10.73;6.47;;;22.10;95.70;;;;;;4792359;30;20055;-86
2022/06/11 12:41:08;;;;;;;13.30;8.02;;;22.10;95.30;;;;;;4801353;29;20035;-89
2022/06/11 12:43:52;;;;;;;12.18;6.88;;;22.00;95.30;;;;;;4780012;30;20036;-84
2022/06/11 12:46:39;;;;;;;13.25;8.20;;;22.10;95.00;;;;;;4786191;30;20027;-86
2022/06/11 12:49:22;;;;;;;13.85;8.10;;;22.20;94.90;;;;;;4797475;30;20080;-84
2022/06/11 12:52:11;;;;;;;13.73;7.72;;;22.10;94.90;;;;;;4794520;30;20034;-92
2022/06/11 12:54:40;;;;;;;14.10;8.55;;;22.10;95.00;;;;;;4782371;30;20035;-91
2022/06/11 12:57:18;;;;;;;11.60;6.72;;;22.10;95.10;;;;;;4785329;30;20602;-89
2022/06/11 13:00:23;;;;;;;11.20;6.18;;;22.20;94.70;;;;;;4801160;29;20035;-86
2022/06/11 13:03:24;;;;;;;9.38;6.00;;;22.20;94.70;;;;;;4792966;30;20020;-86
2022/06/11 13:06:11;;;;;;;10.70;6.85;;;22.30;94.40;;;;;;4770068;30;20040;-87
2022/06/11 13:09:10;;;;;;;10.38;6.25;;;22.20;93.80;;;;;;4763185;30;20043;-87
2022/06/11 13:12:07;;;;;;;12.60;7.03;;;23.50;94.30;;;;;;4748466;30;20031;-89
2022/06/11 13:15:20;;;;;;;10.60;6.07;;;21.80;93.90;;;;;;4747518;30;20025;-89
2022/06/11 13:18:33;;;;;;;13.18;6.28;;;22.00;94.40;;;;;;4698627;30;20065;-85
2022/06/11 13:21:08;;;;;;;10.55;6.32;;;21.90;94.90;;;;;;4776171;24;20055;-86
2022/06/11 13:23:49;;;;;;;13.10;6.20;;;21.80;95.10;;;;;;4802778;30;20046;-88
2022/06/11 13:26:26;;;;;;;10.73;6.53;;;18.90;95.00;;;;;;4800373;30;20028;-87
2022/06/11 13:29:10;;;;;;;10.05;5.30;;;21.50;96.20;;;;;;4797823;30;20024;-87
2022/06/11 13:32:00;;;;;;;12.48;6.80;;;21.30;97.00;;;;;;4788628;30;20015;-91
2022/06/11 13:35:05;;;;;;;10.45;6.68;;;21.00;97.90;;;;;;4801719;30;20042;-92
2022/06/11 13:37:33;;;;;;;10.50;5.85;;;22.10;98.50;;;;;;4802665;30;20050;-88
2022/06/11 13:40:34;;;;;;;12.57;6.68;;;20.70;98.80;;;;;;4801455;30;20099;-86
2022/06/11 13:43:48;;;;;;;10.18;6.22;;;20.80;98.90;;;;;;4776829;30;20027;-91
2022/06/11 13:46:37;;;;;;;10.85;6.97;;;20.90;98.90;;;;;;4778117;30;20062;-89
2022/06/11 13:49:29;;;;;;;12.88;6.78;;;20.90;98.90;;;;;;4778880;30;20407;-86
2022/06/11 13:55:10;;;;;;;8.93;4.43;;;20.90;97.90;;;;;;4742414;30;20052;-88
2022/06/11 13:55:26;;;;;;;8.83;4.27;;;21.00;96.40;;;;;;4738329;30;20051;-87
2022/06/11 13:57:58;;;;;;;9.02;5.40;;;21.10;96.30;;;;;;4775048;30;20028;-89
2022/06/11 14:00:48;;;;;;;9.27;4.30;;;21.20;95.20;;;;;;4774662;30;20111;-89
2022/06/11 14:03:33;;;;;;;7.72;4.50;;;21.30;95.20;;;;;;4756810;30;20510;-87
2022/06/11 14:06:04;;;;;;;8.60;4.30;;;21.70;94.20;;;;;;4757513;30;20110;-88
2022/06/11 14:09:03;;;;;;;8.90;4.72;;;22.00;94.20;;;;;;4744701;30;20088;-88
2022/06/11 14:11:44;;;;;;;10.13;4.60;;;22.30;93.50;;;;;;4755875;30;20052;-85
2022/06/11 14:14:36;;;;;;;8.68;4.00;;;22.40;93.20;;;;;;4745510;30;20262;-85
2022/06/11 14:17:40;;;;;;;9.18;4.60;;;22.30;92.70;;;;;;4763827;24;20155;-92
2022/06/11 14:20:23;;;;;;;7.25;3.90;;;22.20;93.20;;;;;;4774267;30;20050;-90
2022/06/11 14:23:00;;;;;;;10.38;4.38;;;22.00;93.10;;;;;;4775047;30;20035;-87
2022/06/11 14:25:35;;;;;;;7.18;3.42;;;22.20;93.00;;;;;;4775227;30;20027;-87
2022/06/11 14:30:41;;;;;;;7.05;3.60;;;22.40;93.30;;;;;;4775757;29;20051;-88
2022/06/11 14:33:22;;;;;;;8.90;4.22;;;22.70;93.50;;;;;;4777645;30;20035;-91
2022/06/11 14:35:48;;;;;;;7.70;3.50;;;23.70;92.30;;;;;;4780698;30;20047;-88
2022/06/11 14:38:45;;;;;;;7.88;3.80;;;23.90;91.40;;;;;;4779275;30;20023;-86
2022/06/11 14:41:49;;;;;;;8.48;4.03;;;24.20;90.00;;;;;;4781707;30;20038;-88
2022/06/11 14:44:52;;;;;;;10.32;4.07;;;24.10;88.50;;;;;;4788221;30;20019;-90
2022/06/11 14:48:10;;;;;;;7.80;4.32;;;24.00;90.40;;;;;;4788677;30;20257;-88
2022/06/11 14:51:05;;;;;;;7.93;4.13;;;23.00;91.60;;;;;;4792158;30;20091;-90
2022/06/11 14:54:14;;;;;;;7.40;3.80;;;24.10;92.60;;;;;;4782271;30;20482;-89
2022/06/11 14:57:10;;;;;;;8.23;4.88;;;22.70;93.00;;;;;;4783210;30;20034;-85
2022/06/11 14:59:55;;;;;;;9.57;4.90;;;22.80;94.20;;;;;;4785201;24;20063;-89
2022/06/11 15:02:40;;;;;;;9.65;5.53;;;21.90;95.70;;;;;;4775439;30;20023;-90
2022/06/11 15:05:38;;;;;;;8.32;4.78;;;21.50;97.60;;;;;;4780219;24;20082;-90
2022/06/11 15:08:59;;;;;;;;;;;;;;;;;;;;;
2022/06/11 15:14:16;;;;;;;10.95;5.53;;;21.20;98.50;;;;;;4805180;24;20077;-90
2022/06/11 15:16:50;;;;;;;7.88;4.43;;;21.50;98.50;;;;;;4774231;30;20687;-91
2022/06/11 15:25:16;;;;;;;11.18;6.55;;;21.90;97.60;;;;;;4893857;24;20063;-89
2022/06/11 15:27:59;;;;;;;9.90;4.35;;;22.00;98.20;;;;;;4773834;30;20700;-89
2022/06/11 15:30:37;;;;;;;7.13;3.50;;;22.10;97.80;;;;;;4774233;29;20035;-91
2022/06/11 15:33:27;;;;;;;7.63;3.50;;;21.90;96.50;;;;;;4778106;30;20038;-87
2022/06/11 15:35:52;;;;;;;9.35;3.40;;;21.80;96.60;;;;;;4777940;30;20038;-89
2022/06/11 15:38:34;;;;;;;8.38;3.65;;;21.60;96.60;;;;;;4777852;30;20114;-90
2022/06/11 15:41:04;;;;;;;7.28;2.97;;;21.90;96.00;;;;;;4780079;24;20055;-86
2022/06/11 15:43:54;;;;;;;5.88;2.72;;;21.90;96.30;;;;;;4776154;30;20126;-90
2022/06/11 15:46:30;;;;;;;6.28;3.13;;;23.90;96.00;;;;;;4775766;30;20268;-87
2022/06/11 15:49:30;;;;;;;5.45;2.97;;;21.60;95.00;;;;;;4776502;30;20131;-90
2022/06/11 15:52:35;;;;;;;6.80;3.10;;;21.50;95.80;;;;;;4780803;24;20597;-87
2022/06/11 15:55:25;;;;;;;7.00;3.10;;;21.50;96.00;;;;;;4776429;30;20046;-87
2022/06/11 15:58:35;;;;;;;6.20;3.65;;;21.10;96.80;;;;;;4776367;30;20035;-86
2022/06/11 16:01:24;;;;;;;7.93;2.80;;;21.90;98.60;;;;;;4774956;30;20032;-86
2022/06/11 16:03:51;;;;;;;6.50;3.42;;;;;;;;;;4775519;30;20027;-86
2022/06/11 16:06:16;;;;;;;6.90;3.70;;;20.40;99.60;;;;;;4775872;30;20040;-92
2022/06/11 16:08:55;;;;;;;9.23;3.78;;;20.30;99.90;;;;;;4775194;30;20042;-89
2022/06/11 16:11:29;;;;;;;8.07;3.80;;;20.20;99.90;;;;;;4774778;30;20036;-84
2022/06/11 16:14:04;;;;;;;7.68;4.15;;;20.00;99.90;;;;;;4775157;30;20030;-86
2022/06/11 16:16:45;;;;;;;7.78;3.92;;;19.90;99.90;;;;;;4774633;30;20262;-90
2022/06/11 16:19:21;;;;;;;7.60;3.72;;;19.80;99.90;;;;;;4774289;30;20354;-86
2022/06/11 16:22:16;;;;;;;7.82;3.80;;;19.70;99.90;;;;;;4776109;29;20514;-87
2022/06/11 16:24:46;;;;;;;10.43;4.47;;;19.60;99.90;;;;;;4775998;30;20753;-91
2022/06/11 16:27:32;;;;;;;8.90;3.40;;;19.60;99.90;;;;;;4776682;30;20758;-89
2022/06/11 16:30:14;;;;;;;7.53;3.10;;;19.60;99.90;;;;;;4776353;30;20038;-90
2022/06/11 16:32:41;;;;;;;8.07;4.10;;;19.50;99.90;;;;;;4776094;30;20024;-89
2022/06/11 16:35:31;;;;;;;8.35;3.75;;;19.30;99.90;;;;;;4776186;30;20041;-89
2022/06/11 16:38:39;;;;;;;7.20;3.75;;;18.90;99.90;;;;;;4775348;30;20069;-87
2022/06/11 16:44:48;;;;;;;12.10;4.85;;;20.50;99.90;;;;;;4686349;30;20820;-87
2022/06/11 16:47:27;;;;;;;9.40;4.82;;;19.00;99.90;;;;;;4672421;30;20668;-90
2022/06/11 16:56:17;;;;;;;10.55;5.60;;;18.40;99.90;;;;;;4686339;30;20111;-87
2022/06/11 16:58:55;;;;;;;8.82;4.85;;;18.70;99.90;;;;;;4670411;30;20707;-86
2022/06/11 17:01:43;;;;;;;9.20;4.50;;;18.60;99.90;;;;;;4667552;30;20042;-87
2022/06/11 17:04:26;;;;;;;8.38;4.55;;;18.60;99.90;;;;;;4654172;30;20034;-90
2022/06/11 17:07:02;;;;;;;10.40;5.45;;;18.70;99.90;;;;;;4654820;30;20034;-88
2022/06/11 17:10:08;;;;;;;9.35;4.95;;;18.70;99.90;;;;;;4762906;24;20063;-87
2022/06/11 17:12:46;;;;;;;9.50;5.25;;;18.50;99.90;;;;;;4775002;30;20031;-88
2022/06/11 17:24:39;;;;;;;10.20;5.18;;;18.40;99.90;;;;;;4755372;30;20650;-87
2022/06/11 17:27:45;;;;;;;11.15;5.68;;;18.40;99.90;;;;;;4742020;29;20028;-89
2022/06/11 17:30:15;;;;;;;10.07;5.60;;;19.00;99.90;;;;;;4738412;30;20618;-86
2022/06/11 17:32:41;;;;;;;9.40;4.70;;;18.30;99.90;;;;;;4738736;30;20036;-86
2022/06/11 17:38:15;;;;;;;11.48;5.35;;;18.30;99.90;;;;;;4777273;24;20128;-85
2022/06/11 17:41:00;;;;;;;9.27;4.78;;;19.30;99.90;;;;;;4774862;29;20465;-85
2022/06/11 17:43:46;;;;;;;10.10;5.15;;;18.40;99.90;;;;;;4774951;30;20112;-86
2022/06/11 17:46:25;;;;;;;12.77;5.32;;;18.30;99.90;;;;;;4773149;30;20395;-86
2022/06/11 17:48:54;;;;;;;9.63;4.97;;;18.30;99.90;;;;;;4771121;30;20065;-87
2022/06/11 17:51:38;;;;;;;8.27;4.38;;;18.40;99.90;;;;;;4784467;30;20120;-87
2022/06/11 17:54:08;;;;;;;9.93;5.72;;;20.20;99.90;;;;;;4777956;29;20059;-87
2022/06/11 17:56:50;;;;;;;11.30;5.68;;;18.50;99.90;;;;;;4779172;30;20035;-85
2022/06/11 17:59:16;;;;;;;9.32;5.38;;;18.70;99.90;;;;;;4776195;30;20024;-84
2022/06/11 18:01:43;;;;;;;7.82;4.82;;;18.80;99.90;;;;;;4776023;30;20204;-89
2022/06/11 18:04:35;;;;;;;11.38;5.88;;;19.20;99.90;;;;;;4776194;30;20118;-88
2022/06/11 18:07:17;;;;;;;8.82;4.90;;;18.90;99.90;;;;;;4776670;30;20035;-86
2022/06/11 18:10:04;;;;;;;8.93;4.75;;;18.70;99.90;;;;;;4789586;24;20067;-87
2022/06/11 18:12:31;;;;;;;9.10;5.07;;;18.60;99.90;;;;;;4775858;30;20059;-89
2022/06/11 18:15:06;;;;;;;9.00;5.15;;;18.60;99.90;;;;;;4773269;29;20035;-91
2022/06/11 18:17:53;;;;;;;11.90;5.78;;;18.60;99.90;;;;;;4773565;30;20044;-88
2022/06/11 18:20:21;;;;;;;10.52;4.88;;;19.30;99.90;;;;;;4773449;30;20212;-88
2022/06/11 18:25:33;;;;;;;11.85;5.70;;;18.50;99.90;;;;;;4772739;30;20070;-87
2022/06/11 18:28:51;;;;;;;9.68;5.63;;;18.40;99.90;;;;;;4771809;30;20035;-88
2022/06/11 18:31:16;;;;;;;10.75;6.22;;;18.40;99.90;;;;;;4703804;30;20377;-87